Time;durP1;ratioP1;P1;durP2;ratioP2;P2;SDS_P1;SDS_P2;PMS_P1;PMS_P2;Temp;Humidity;BMP_temperature;BMP_pressure;BME280_temperature;BME280_humidity;BME280_pressure;Samples;Min_cycle;Max_cycle;Signal;HPM_P1;HPM_P2
2021/12/18 00:02:08;;;;;;;2.80;1.90;;;6.90;99.90;;;;;;4974103;28;20754;-63
2021/12/18 00:04:36;;;;;;;2.00;1.50;;;6.90;99.90;;;;;;4974292;28;20758;-63
2021/12/18 00:07:05;;;;;;;2.63;1.70;;;6.90;99.90;;;;;;4974175;28;20595;-63
2021/12/18 00:09:33;;;;;;;2.67;1.40;;;6.90;99.90;;;;;;4974004;28;20234;-63
2021/12/18 00:12:04;;;;;;;3.00;1.60;;;6.90;99.90;;;;;;4973900;28;20234;-63
2021/12/18 00:14:33;;;;;;;2.40;1.70;;;6.90;99.90;;;;;;4973983;28;20260;-63
2021/12/18 00:17:02;;;;;;;3.13;1.80;;;6.90;99.90;;;;;;4967613;28;20245;-63
2021/12/18 00:19:30;;;;;;;3.43;2.00;;;6.90;99.90;;;;;;4971530;28;20761;-63
2021/12/18 00:22:01;;;;;;;2.33;1.73;;;6.90;99.90;;;;;;4968427;28;20309;-63
2021/12/18 00:24:31;;;;;;;3.13;1.87;;;6.90;99.90;;;;;;4972721;28;20362;-63
2021/12/18 00:27:01;;;;;;;2.87;2.00;;;6.90;99.90;;;;;;4973602;28;20686;-63
2021/12/18 00:29:29;;;;;;;3.43;1.90;;;6.90;99.90;;;;;;4973560;28;20258;-63
2021/12/18 00:31:59;;;;;;;4.40;2.50;;;6.90;99.90;;;;;;4973656;28;20238;-63
2021/12/18 00:34:27;;;;;;;8.03;2.83;;;6.90;99.90;;;;;;4973361;28;20234;-63
2021/12/18 00:36:55;;;;;;;4.43;2.63;;;6.90;99.90;;;;;;4966934;28;20337;-63
2021/12/18 00:39:23;;;;;;;5.40;2.60;;;6.90;99.90;;;;;;4973670;28;20242;-63
2021/12/18 00:42:07;;;;;;;6.53;2.90;;;7.00;99.90;;;;;;4971332;28;20262;-63
2021/12/18 00:44:36;;;;;;;6.00;2.80;;;7.00;99.90;;;;;;4956975;28;20774;-63
2021/12/18 00:47:06;;;;;;;8.37;3.10;;;7.10;99.90;;;;;;4969533;28;20243;-63
2021/12/18 00:49:35;;;;;;;8.33;2.90;;;7.00;99.90;;;;;;4953866;28;20640;-63
2021/12/18 00:52:04;;;;;;;7.87;3.13;;;7.00;99.90;;;;;;4954062;28;20266;-63
2021/12/18 00:54:34;;;;;;;7.40;2.77;;;7.00;99.90;;;;;;4953767;28;20232;-63
2021/12/18 00:57:05;;;;;;;9.10;3.03;;;7.00;99.90;;;;;;4954016;28;20774;-63
2021/12/18 00:59:35;;;;;;;11.10;3.03;;;7.00;99.90;;;;;;4953601;28;20322;-63
2021/12/18 01:02:04;;;;;;;9.90;3.27;;;7.00;99.90;;;;;;4965807;28;20242;-63
2021/12/18 01:04:33;;;;;;;9.40;3.13;;;7.00;99.90;;;;;;4953764;28;20258;-63
2021/12/18 01:07:01;;;;;;;10.47;3.37;;;7.00;99.90;;;;;;4957012;28;20236;-63
2021/12/18 01:09:45;;;;;;;9.37;3.50;;;7.10;99.90;;;;;;4973022;28;20262;-63
2021/12/18 01:12:13;;;;;;;9.47;3.40;;;7.10;99.90;;;;;;4972488;28;20321;-63
2021/12/18 01:14:58;;;;;;;7.20;3.17;;;7.10;99.90;;;;;;4968575;28;20322;-63
2021/12/18 01:22:59;;;;;;;5.47;2.27;;;7.10;99.90;;;;;;4961507;28;20242;-63
2021/12/18 01:25:27;;;;;;;7.70;2.50;;;7.20;99.90;;;;;;4953213;28;20257;-63
2021/12/18 01:27:55;;;;;;;6.63;2.37;;;7.20;99.90;;;;;;4958604;28;20259;-63
2021/12/18 01:30:23;;;;;;;4.47;2.00;;;7.20;99.90;;;;;;4970548;28;20598;-63
2021/12/18 01:32:51;;;;;;;4.10;2.00;;;7.20;99.90;;;;;;4972384;28;20238;-63
2021/12/18 01:35:21;;;;;;;4.00;2.03;;;7.20;99.90;;;;;;4972468;28;20293;-63
2021/12/18 01:37:50;;;;;;;3.33;2.00;;;7.30;99.90;;;;;;4956139;28;20626;-63
2021/12/18 01:40:18;;;;;;;3.30;1.70;;;7.20;99.90;;;;;;4953309;28;20257;-63
2021/12/18 01:43:36;;;;;;;2.57;1.70;;;7.30;99.90;;;;;;4952827;28;20235;-63
2021/12/18 01:51:47;;;;;;;3.07;1.90;;;7.30;99.90;;;;;;4930863;29;20255;-63
2021/12/18 01:54:16;;;;;;;2.30;1.77;;;7.20;99.90;;;;;;4949595;28;20242;-63
2021/12/18 01:56:44;;;;;;;3.37;1.80;;;7.20;99.90;;;;;;4965391;28;21379;-63
2021/12/18 01:59:12;;;;;;;3.33;2.23;;;7.20;99.90;;;;;;4972335;28;20325;-63
2021/12/18 02:01:40;;;;;;;4.67;2.67;;;7.20;99.90;;;;;;4971957;28;20238;-64
2021/12/18 02:04:11;;;;;;;3.90;2.67;;;7.20;99.90;;;;;;4969977;28;20325;-63
2021/12/18 02:06:40;;;;;;;6.80;2.90;;;7.30;99.90;;;;;;4971279;28;20242;-62
2021/12/18 02:09:09;;;;;;;5.50;2.90;;;7.40;99.90;;;;;;4953262;28;20246;-63
2021/12/18 02:11:38;;;;;;;6.40;3.33;;;7.40;99.90;;;;;;4952286;28;20243;-63
2021/12/18 02:14:36;;;;;;;6.90;3.30;;;7.30;99.90;;;;;;4953054;28;20245;-63
2021/12/18 02:20:10;;;;;;;6.20;3.50;;;7.40;99.90;;;;;;4956400;28;20245;-63
2021/12/18 02:22:40;;;;;;;6.13;3.60;;;7.30;99.90;;;;;;4963896;28;20242;-63
2021/12/18 02:25:08;;;;;;;6.53;3.63;;;7.40;99.90;;;;;;4972010;28;20242;-63
2021/12/18 02:27:36;;;;;;;6.90;4.10;;;7.40;99.90;;;;;;4971659;28;20238;-63
2021/12/18 02:30:06;;;;;;;7.77;4.13;;;7.30;99.90;;;;;;4972102;28;20238;-63
2021/12/18 02:32:34;;;;;;;6.87;4.20;;;7.30;99.90;;;;;;4971571;28;20234;-63
2021/12/18 02:35:05;;;;;;;6.50;3.80;;;7.40;99.90;;;;;;4970400;28;20242;-63
2021/12/18 02:37:39;;;;;;;8.40;4.20;;;7.40;99.90;;;;;;4957388;28;20329;-63
2021/12/18 02:42:55;;;;;;;6.80;3.63;;;7.40;99.90;;;;;;4952111;28;20249;-63
2021/12/18 02:45:26;;;;;;;7.43;3.77;;;7.30;99.90;;;;;;4952323;28;20330;-63
2021/12/18 02:47:54;;;;;;;8.10;4.00;;;7.40;99.90;;;;;;4952048;28;20246;-63
2021/12/18 02:50:22;;;;;;;8.00;4.07;;;7.40;99.90;;;;;;4969540;28;20609;-63
2021/12/18 02:52:50;;;;;;;7.87;4.00;;;7.40;99.90;;;;;;4961739;28;20227;-63
2021/12/18 02:55:20;;;;;;;6.90;3.83;;;7.40;99.90;;;;;;4952390;28;20725;-63
2021/12/18 02:57:48;;;;;;;7.57;3.90;;;7.40;99.90;;;;;;4952064;28;20242;-63
2021/12/18 03:00:17;;;;;;;7.00;3.53;;;7.40;99.90;;;;;;4952403;28;20239;-63
2021/12/18 03:02:45;;;;;;;7.60;3.93;;;7.40;99.90;;;;;;4952068;28;20754;-63
2021/12/18 03:05:21;;;;;;;6.63;3.60;;;7.40;99.90;;;;;;4962382;28;20238;-63
2021/12/18 03:07:56;;;;;;;7.00;3.67;;;7.40;99.90;;;;;;4965093;28;20242;-63
2021/12/18 03:19:23;;;;;;;6.33;3.80;;;7.50;99.90;;;;;;4955541;28;20285;-63
2021/12/18 03:22:35;;;;;;;5.27;3.10;;;7.40;99.90;;;;;;4955234;28;20271;-63
2021/12/18 03:24:59;;;;;;;6.43;3.37;;;7.50;99.90;;;;;;4955370;28;20326;-63
2021/12/18 03:27:29;;;;;;;6.47;3.37;;;7.40;99.90;;;;;;4955358;28;20333;-63
2021/12/18 03:29:58;;;;;;;5.57;3.03;;;7.40;99.90;;;;;;4955553;28;20243;-63
2021/12/18 03:32:26;;;;;;;5.87;3.23;;;7.40;99.90;;;;;;4955409;28;20239;-63
2021/12/18 03:34:55;;;;;;;5.67;2.67;;;7.50;99.90;;;;;;4960764;28;20238;-63
2021/12/18 03:37:23;;;;;;;5.73;3.00;;;7.50;99.90;;;;;;4964685;28;20276;-64
2021/12/18 03:39:51;;;;;;;6.80;3.30;;;7.50;99.90;;;;;;4955618;28;20630;-63
2021/12/18 03:42:19;;;;;;;6.27;3.47;;;7.50;99.90;;;;;;4960968;28;20334;-63
2021/12/18 03:44:49;;;;;;;6.63;3.20;;;7.60;99.90;;;;;;4974398;28;20293;-64
2021/12/18 03:47:17;;;;;;;6.50;3.07;;;7.60;99.90;;;;;;4974558;28;20245;-64
2021/12/18 03:49:46;;;;;;;4.77;2.73;;;7.70;99.90;;;;;;4974483;28;20775;-64
2021/12/18 03:52:14;;;;;;;6.63;3.47;;;7.60;99.90;;;;;;4974434;28;20238;-63
2021/12/18 03:54:42;;;;;;;7.47;3.60;;;7.60;99.90;;;;;;4974307;28;20234;-63
2021/12/18 03:57:10;;;;;;;6.47;2.87;;;7.50;99.90;;;;;;4963256;28;20719;-63
2021/12/18 03:59:38;;;;;;;6.10;3.10;;;7.50;99.90;;;;;;4955332;28;20246;-63
2021/12/18 04:02:07;;;;;;;6.67;3.17;;;7.50;99.90;;;;;;4955245;28;20270;-63
2021/12/18 04:04:36;;;;;;;6.17;3.50;;;7.50;99.90;;;;;;4957804;28;20359;-64
2021/12/18 04:07:06;;;;;;;4.80;2.83;;;7.60;99.90;;;;;;4966257;28;20271;-63
2021/12/18 04:09:34;;;;;;;7.90;3.20;;;7.50;99.90;;;;;;4973447;28;20245;-63
2021/12/18 04:12:04;;;;;;;6.83;3.80;;;7.60;99.90;;;;;;4970298;28;20318;-63
2021/12/18 04:14:32;;;;;;;7.60;3.70;;;7.50;99.90;;;;;;4954422;28;20239;-63
2021/12/18 04:17:01;;;;;;;6.53;3.50;;;7.50;99.90;;;;;;4954331;28;20243;-64
2021/12/18 04:19:31;;;;;;;6.67;3.40;;;7.60;99.90;;;;;;4954541;28;20239;-63
2021/12/18 04:21:59;;;;;;;6.97;3.63;;;7.60;99.90;;;;;;4954713;28;20648;-63
2021/12/18 04:24:27;;;;;;;5.97;3.07;;;7.60;99.90;;;;;;4954302;28;20243;-63
2021/12/18 04:26:55;;;;;;;9.00;3.73;;;7.60;99.90;;;;;;4957023;28;20323;-63
2021/12/18 04:29:23;;;;;;;8.40;3.77;;;7.60;99.90;;;;;;4973731;28;20338;-63
2021/12/18 04:31:51;;;;;;;9.68;5.03;;;7.60;99.90;;;;;;4972786;28;20430;-63
2021/12/18 04:34:19;;;;;;;9.13;3.90;;;7.60;99.90;;;;;;4973598;28;20270;-63
2021/12/18 04:36:49;;;;;;;7.70;3.87;;;7.60;99.90;;;;;;4966502;28;20589;-63
2021/12/18 04:39:17;;;;;;;9.93;3.83;;;7.60;99.90;;;;;;4973315;28;20365;-63
2021/12/18 04:41:49;;;;;;;7.60;3.57;;;7.60;99.90;;;;;;4972085;28;20241;-63
2021/12/18 04:44:19;;;;;;;5.50;3.00;;;7.60;99.90;;;;;;4954080;28;20243;-62
2021/12/18 04:46:47;;;;;;;7.50;3.23;;;7.60;99.90;;;;;;4966579;28;20247;-63
2021/12/18 04:49:15;;;;;;;6.07;3.27;;;7.60;99.90;;;;;;4973335;28;20234;-63
2021/12/18 04:51:44;;;;;;;8.37;3.30;;;7.60;99.90;;;;;;4972257;28;20328;-63
2021/12/18 04:54:13;;;;;;;7.87;3.80;;;7.60;99.90;;;;;;4954003;28;20609;-63
2021/12/18 04:56:41;;;;;;;9.37;3.93;;;7.60;99.90;;;;;;4954443;28;20744;-63
2021/12/18 04:59:09;;;;;;;9.40;3.80;;;7.60;99.90;;;;;;4973370;28;20242;-63
2021/12/18 05:01:39;;;;;;;9.33;4.33;;;7.60;99.90;;;;;;4973402;28;20630;-63
2021/12/18 05:04:10;;;;;;;10.70;4.70;;;7.60;99.90;;;;;;4953749;28;20239;-63
2021/12/18 05:06:43;;;;;;;7.80;4.27;;;7.60;99.90;;;;;;4956839;28;20675;-63
2021/12/18 05:09:13;;;;;;;10.13;4.83;;;7.60;99.90;;;;;;4969342;28;20317;-63
2021/12/18 05:11:42;;;;;;;10.93;4.33;;;7.70;99.90;;;;;;4972412;28;20241;-63
2021/12/18 05:14:11;;;;;;;10.83;4.53;;;7.70;99.90;;;;;;4973105;28;20262;-63
2021/12/18 05:16:40;;;;;;;13.90;4.63;;;7.60;99.90;;;;;;4966214;28;20317;-63
2021/12/18 05:19:08;;;;;;;9.80;4.37;;;7.60;99.90;;;;;;4973431;28;20310;-63
2021/12/18 05:21:36;;;;;;;10.17;4.20;;;7.60;99.90;;;;;;4972861;28;20246;-63
2021/12/18 05:24:05;;;;;;;11.17;3.90;;;7.60;99.90;;;;;;4972720;28;20235;-63
2021/12/18 05:26:34;;;;;;;9.20;3.70;;;7.60;99.90;;;;;;4972113;28;20234;-63
2021/12/18 05:29:03;;;;;;;7.93;3.00;;;7.60;99.90;;;;;;4972829;28;20254;-63
2021/12/18 05:31:31;;;;;;;7.00;2.80;;;7.60;99.90;;;;;;4972644;28;20242;-63
2021/12/18 05:34:01;;;;;;;6.40;2.90;;;7.60;99.90;;;;;;4966967;28;20330;-63
2021/12/18 05:36:36;;;;;;;5.60;2.50;;;7.60;99.90;;;;;;4967790;28;26514;-63
2021/12/18 05:39:06;;;;;;;5.53;2.20;;;7.50;99.90;;;;;;4934284;28;20334;-63
2021/12/18 05:41:36;;;;;;;5.20;2.37;;;7.50;99.90;;;;;;4949628;28;20263;-63
2021/12/18 05:44:05;;;;;;;5.63;2.10;;;7.50;99.90;;;;;;4953302;28;20328;-63
2021/12/18 05:46:34;;;;;;;6.47;2.70;;;7.50;99.90;;;;;;4952984;28;20314;-63
2021/12/18 05:49:03;;;;;;;5.37;2.60;;;7.50;99.90;;;;;;4953110;28;20239;-64
2021/12/18 05:51:32;;;;;;;6.00;2.70;;;7.50;99.90;;;;;;4971065;28;20238;-63
2021/12/18 05:54:00;;;;;;;5.37;2.43;;;7.50;99.90;;;;;;4953128;28;20330;-63
2021/12/18 05:56:28;;;;;;;6.30;2.50;;;7.50;99.90;;;;;;4952697;28;20235;-63
2021/12/18 05:58:58;;;;;;;5.43;2.90;;;7.50;99.90;;;;;;4952865;28;20238;-63
2021/12/18 06:01:27;;;;;;;7.23;2.87;;;7.50;99.90;;;;;;4952902;28;20247;-63
2021/12/18 06:03:56;;;;;;;6.43;2.53;;;7.50;99.90;;;;;;4952688;28;20273;-63
2021/12/18 06:06:25;;;;;;;5.87;2.90;;;7.40;99.90;;;;;;4952608;28;20274;-63
2021/12/18 06:08:54;;;;;;;6.57;2.63;;;7.40;99.90;;;;;;4970908;28;20329;-63
2021/12/18 06:11:23;;;;;;;8.03;3.03;;;7.50;99.90;;;;;;4971888;28;20246;-63
2021/12/18 06:13:52;;;;;;;6.90;2.97;;;7.40;99.90;;;;;;4971931;28;20749;-63
2021/12/18 06:16:22;;;;;;;5.53;2.77;;;7.40;99.90;;;;;;4967658;28;20235;-63
2021/12/18 06:18:52;;;;;;;6.40;2.63;;;7.40;99.90;;;;;;4952483;28;20692;-63
2021/12/18 06:21:22;;;;;;;5.00;2.07;;;7.40;99.90;;;;;;4954834;28;20245;-63
2021/12/18 06:23:52;;;;;;;5.20;2.37;;;7.40;99.90;;;;;;4971552;28;20289;-63
2021/12/18 06:26:22;;;;;;;4.83;1.90;;;7.40;99.90;;;;;;4971908;28;20246;-63
2021/12/18 06:28:50;;;;;;;4.57;2.20;;;7.40;99.90;;;;;;4971759;28;20721;-63
2021/12/18 06:31:37;;;;;;;3.67;2.13;;;7.40;99.90;;;;;;4950580;28;20580;-64
2021/12/18 06:34:05;;;;;;;3.57;1.83;;;7.40;99.90;;;;;;4937027;28;20658;-63
2021/12/18 06:36:33;;;;;;;4.00;2.20;;;7.40;99.90;;;;;;4939082;28;20234;-63
2021/12/18 06:39:02;;;;;;;3.27;1.70;;;7.40;99.90;;;;;;4954640;28;20265;-63
2021/12/18 06:41:30;;;;;;;3.87;2.00;;;7.40;99.90;;;;;;4946633;28;20573;-63
2021/12/18 06:43:58;;;;;;;4.73;1.67;;;7.40;99.90;;;;;;4947636;28;20355;-63
2021/12/18 06:46:27;;;;;;;3.70;1.60;;;7.40;99.90;;;;;;4945678;28;20246;-63
2021/12/18 06:48:56;;;;;;;2.57;1.57;;;7.40;99.90;;;;;;4949434;28;20281;-63
2021/12/18 06:51:25;;;;;;;2.73;1.53;;;7.40;99.90;;;;;;4950137;28;20286;-64
2021/12/18 06:53:53;;;;;;;2.63;1.50;;;7.40;99.90;;;;;;4952088;28;20236;-63
2021/12/18 06:56:22;;;;;;;2.07;1.30;;;7.40;99.90;;;;;;4947111;28;20239;-63
2021/12/18 06:58:50;;;;;;;3.43;1.47;;;7.40;99.90;;;;;;4949089;28;20239;-63
2021/12/18 07:01:18;;;;;;;3.50;1.60;;;7.40;99.90;;;;;;4947806;28;20227;-63
2021/12/18 07:03:47;;;;;;;2.93;1.60;;;7.40;99.90;;;;;;4952096;28;20244;-63
2021/12/18 07:06:16;;;;;;;2.17;1.40;;;7.40;99.90;;;;;;4944764;28;20239;-63
2021/12/18 07:08:44;;;;;;;3.20;1.50;;;7.40;99.90;;;;;;4950573;28;20282;-63
2021/12/18 07:11:13;;;;;;;3.67;2.00;;;7.40;99.90;;;;;;4946553;28;20339;-63
2021/12/18 07:13:41;;;;;;;3.77;1.80;;;7.40;99.90;;;;;;4948729;28;20241;-63
2021/12/18 07:16:09;;;;;;;5.77;2.37;;;7.40;99.90;;;;;;4947151;28;20246;-63
2021/12/18 07:18:37;;;;;;;4.43;1.90;;;7.40;99.90;;;;;;4946596;28;20703;-63
2021/12/18 07:21:05;;;;;;;3.03;1.70;;;7.40;99.90;;;;;;4948874;28;20251;-63
2021/12/18 07:23:35;;;;;;;4.00;2.00;;;7.40;99.90;;;;;;4952211;28;20331;-63
2021/12/18 07:26:03;;;;;;;4.53;2.00;;;7.50;99.90;;;;;;4945047;28;20227;-63
2021/12/18 07:28:31;;;;;;;4.97;2.23;;;7.40;99.90;;;;;;4946719;28;20240;-63
2021/12/18 07:30:59;;;;;;;3.27;1.93;;;7.40;99.90;;;;;;4944486;28;20432;-63
2021/12/18 07:33:27;;;;;;;3.53;1.83;;;7.40;99.90;;;;;;4946702;28;20326;-63
2021/12/18 07:35:55;;;;;;;4.60;2.17;;;7.40;99.90;;;;;;4958419;28;20293;-63
2021/12/18 07:38:23;;;;;;;4.33;2.20;;;7.50;99.90;;;;;;4952448;28;20326;-63
2021/12/18 07:40:53;;;;;;;4.40;1.83;;;7.50;99.90;;;;;;4955073;28;20243;-63
2021/12/18 07:43:21;;;;;;;4.07;1.83;;;7.50;99.90;;;;;;4951507;28;20255;-63
2021/12/18 07:45:49;;;;;;;3.17;1.80;;;7.50;99.90;;;;;;4959436;28;20243;-63
2021/12/18 07:48:17;;;;;;;3.40;1.90;;;7.50;99.90;;;;;;4956687;28;20326;-63
2021/12/18 07:50:46;;;;;;;3.30;1.87;;;7.50;99.90;;;;;;4959265;28;20262;-63
2021/12/18 07:53:14;;;;;;;3.97;1.63;;;7.50;99.90;;;;;;4960153;28;20234;-63
2021/12/18 07:55:42;;;;;;;3.63;1.73;;;7.50;99.90;;;;;;4959277;28;20352;-63
2021/12/18 07:58:11;;;;;;;2.70;1.63;;;7.50;99.90;;;;;;4959757;28;20240;-63
2021/12/18 08:00:40;;;;;;;4.57;2.00;;;7.50;99.90;;;;;;4957763;28;20246;-63
2021/12/18 08:03:08;;;;;;;2.93;1.50;;;7.50;99.90;;;;;;4958869;28;20635;-63
2021/12/18 08:05:36;;;;;;;2.53;1.50;;;7.50;99.90;;;;;;4959716;28;20244;-62
2021/12/18 08:08:05;;;;;;;1.90;1.40;;;7.40;99.90;;;;;;4960056;28;20249;-63
2021/12/18 08:10:33;;;;;;;3.47;1.83;;;7.50;99.90;;;;;;4957195;28;20328;-63
2021/12/18 08:13:01;;;;;;;4.20;1.93;;;7.50;99.90;;;;;;4957345;28;20242;-63
2021/12/18 08:15:31;;;;;;;2.53;1.47;;;7.50;99.90;;;;;;4958730;28;20235;-63
2021/12/18 08:18:03;;;;;;;3.80;1.50;;;7.50;99.90;;;;;;4957887;28;20649;-63
2021/12/18 08:20:32;;;;;;;3.00;1.60;;;7.50;99.90;;;;;;4959294;28;20250;-63
2021/12/18 08:23:00;;;;;;;3.13;1.50;;;7.50;99.90;;;;;;4957607;28;20257;-63
2021/12/18 08:25:28;;;;;;;2.63;1.57;;;7.50;99.90;;;;;;4958340;28;20651;-63
2021/12/18 08:27:58;;;;;;;4.10;1.80;;;7.50;99.90;;;;;;4960088;28;20466;-63
2021/12/18 08:30:27;;;;;;;3.70;1.77;;;7.50;99.90;;;;;;4959382;28;20794;-63
2021/12/18 08:32:58;;;;;;;3.10;1.83;;;7.50;99.90;;;;;;4958915;28;20239;-63
2021/12/18 08:35:27;;;;;;;2.57;1.60;;;7.50;99.90;;;;;;4958326;28;21397;-63
2021/12/18 08:37:56;;;;;;;3.27;1.67;;;7.50;99.90;;;;;;4957926;28;20748;-63
2021/12/18 08:40:25;;;;;;;3.37;1.60;;;7.50;99.90;;;;;;4957862;28;20277;-63
2021/12/18 08:42:54;;;;;;;3.50;1.80;;;7.50;99.90;;;;;;4953826;28;20248;-63
2021/12/18 08:45:22;;;;;;;4.10;1.60;;;7.50;99.90;;;;;;4957915;28;20263;-63
2021/12/18 08:47:51;;;;;;;3.50;1.90;;;7.50;99.90;;;;;;4959613;28;20243;-62
2021/12/18 08:50:21;;;;;;;4.73;2.77;;;7.50;99.90;;;;;;4957953;28;20301;-63
2021/12/18 08:52:51;;;;;;;5.90;3.83;;;7.50;99.90;;;;;;4956027;28;20238;-63
2021/12/18 08:55:22;;;;;;;4.93;4.13;;;7.50;99.90;;;;;;4956944;28;20293;-63
2021/12/18 08:57:50;;;;;;;6.17;5.53;;;7.50;99.90;;;;;;4958000;28;20238;-63
2021/12/18 09:00:21;;;;;;;7.10;5.23;;;7.50;99.90;;;;;;4956605;28;20250;-63
2021/12/18 09:02:52;;;;;;;8.17;6.70;;;7.50;99.90;;;;;;4958609;28;20246;-63
2021/12/18 09:05:22;;;;;;;7.00;6.30;;;7.50;99.90;;;;;;4960554;28;20243;-63
2021/12/18 09:07:50;;;;;;;7.33;6.63;;;7.50;99.90;;;;;;4958210;28;20265;-63
2021/12/18 09:10:20;;;;;;;7.77;6.97;;;7.50;99.90;;;;;;4960896;28;20250;-64
2021/12/18 09:12:48;;;;;;;7.73;6.07;;;7.50;99.90;;;;;;4954466;28;20252;-63
2021/12/18 09:15:16;;;;;;;6.87;5.97;;;7.50;99.90;;;;;;4959226;28;20267;-63
2021/12/18 09:17:44;;;;;;;7.83;5.20;;;7.50;99.90;;;;;;4955340;28;20258;-63
2021/12/18 09:20:14;;;;;;;4.33;3.77;;;7.50;99.90;;;;;;4959095;28;20721;-63
2021/12/18 09:22:44;;;;;;;4.70;3.90;;;7.50;99.90;;;;;;4958028;28;20706;-63
2021/12/18 09:25:12;;;;;;;4.87;3.70;;;7.50;99.90;;;;;;4958874;28;20767;-63
2021/12/18 09:27:41;;;;;;;7.67;4.43;;;7.50;99.90;;;;;;4956647;28;20580;-63
2021/12/18 09:30:13;;;;;;;4.77;3.87;;;7.50;99.90;;;;;;4955447;28;20277;-63
2021/12/18 09:32:41;;;;;;;5.20;4.20;;;7.50;99.90;;;;;;4953929;28;20673;-63
2021/12/18 09:35:11;;;;;;;6.43;3.97;;;7.50;99.90;;;;;;4957726;28;20246;-63
2021/12/18 09:37:39;;;;;;;8.17;4.33;;;7.50;99.90;;;;;;4956072;28;20798;-62
2021/12/18 09:40:10;;;;;;;8.10;4.03;;;7.60;99.90;;;;;;4957922;28;20243;-62
2021/12/18 09:42:39;;;;;;;7.43;3.60;;;7.60;99.90;;;;;;4956467;28;20247;-61
2021/12/18 09:45:08;;;;;;;7.27;4.03;;;7.60;99.90;;;;;;4959678;28;20722;-62
2021/12/18 09:47:38;;;;;;;8.00;3.77;;;7.60;99.90;;;;;;4956512;28;22972;-62
2021/12/18 09:50:07;;;;;;;8.50;3.60;;;7.60;99.90;;;;;;4957242;28;20270;-62
2021/12/18 09:52:36;;;;;;;12.00;4.50;;;7.70;99.90;;;;;;4955430;28;20360;-61
2021/12/18 09:55:05;;;;;;;9.57;3.83;;;7.70;99.90;;;;;;4957809;28;20907;-62
2021/12/18 09:57:35;;;;;;;12.63;4.53;;;7.70;99.90;;;;;;4955512;28;20273;-61
2021/12/18 10:00:06;;;;;;;14.33;4.00;;;7.70;99.90;;;;;;4957508;28;20239;-61
2021/12/18 10:02:38;;;;;;;13.97;4.70;;;7.70;99.90;;;;;;4955706;28;20250;-62
2021/12/18 10:05:08;;;;;;;17.53;4.93;;;7.70;99.90;;;;;;4953868;28;20246;-62
2021/12/18 10:07:36;;;;;;;12.97;5.23;;;7.70;99.90;;;;;;4955695;28;20243;-61
2021/12/18 10:10:11;;;;;;;13.83;5.70;;;7.70;99.90;;;;;;4953780;28;20250;-61
2021/12/18 10:12:40;;;;;;;20.93;5.27;;;7.70;99.90;;;;;;4957965;28;20336;-62
2021/12/18 10:15:16;;;;;;;12.90;5.20;;;7.80;99.90;;;;;;4958254;28;20238;-62
2021/12/18 10:17:44;;;;;;;13.57;4.63;;;7.80;99.90;;;;;;4960954;28;20353;-61
2021/12/18 10:20:19;;;;;;;14.10;4.90;;;7.80;99.90;;;;;;4950790;28;20244;-61
2021/12/18 10:22:50;;;;;;;12.63;4.80;;;7.80;99.90;;;;;;4954407;28;20775;-61
2021/12/18 10:25:21;;;;;;;12.90;4.40;;;7.80;99.90;;;;;;4966724;28;20325;-61
2021/12/18 10:28:03;;;;;;;13.03;4.57;;;7.80;99.90;;;;;;4961957;28;20239;-61
2021/12/18 10:30:32;;;;;;;15.60;5.03;;;7.90;99.90;;;;;;4969927;28;20254;-61
2021/12/18 10:33:05;;;;;;;11.70;4.87;;;7.90;99.90;;;;;;4960730;28;20239;-61
2021/12/18 10:35:38;;;;;;;15.07;4.77;;;8.00;99.90;;;;;;4952484;28;20270;-61
2021/12/18 10:38:06;;;;;;;14.70;4.93;;;8.00;99.90;;;;;;4951389;28;20323;-61
2021/12/18 10:40:46;;;;;;;16.23;4.73;;;8.00;99.90;;;;;;4959896;28;20262;-61
2021/12/18 10:43:16;;;;;;;15.43;5.57;;;8.00;99.90;;;;;;4943525;28;20259;-61
2021/12/18 10:45:45;;;;;;;13.27;4.80;;;8.10;99.90;;;;;;4941363;28;20267;-61
2021/12/18 10:48:16;;;;;;;11.30;4.53;;;8.10;99.90;;;;;;4943315;28;20244;-61
2021/12/18 10:50:48;;;;;;;15.23;4.67;;;8.10;99.90;;;;;;4933273;28;20715;-61
2021/12/18 10:53:19;;;;;;;12.50;4.43;;;8.10;99.90;;;;;;4941221;28;20247;-61
2021/12/18 10:55:51;;;;;;;17.60;4.67;;;8.10;99.90;;;;;;4942207;28;20245;-61
2021/12/18 10:58:22;;;;;;;20.27;4.50;;;8.10;99.90;;;;;;4962426;28;20273;-61
2021/12/18 11:00:57;;;;;;;15.83;3.90;;;8.20;99.90;;;;;;4971659;28;20702;-62
2021/12/18 11:03:30;;;;;;;16.07;4.17;;;8.30;99.90;;;;;;4957120;28;20276;-61
2021/12/18 11:06:17;;;;;;;15.47;4.10;;;8.30;99.90;;;;;;4948327;28;20289;-61
2021/12/18 11:09:00;;;;;;;14.20;4.07;;;8.30;99.90;;;;;;4953160;28;20325;-61
2021/12/18 11:14:18;;;;;;;13.70;3.33;;;8.30;99.90;;;;;;4949049;28;20335;-61
2021/12/18 11:16:51;;;;;;;11.93;3.23;;;8.40;99.90;;;;;;4948764;28;20262;-62
2021/12/18 11:19:21;;;;;;;13.83;3.87;;;8.50;99.90;;;;;;4952302;28;20235;-61
2021/12/18 11:21:51;;;;;;;13.70;3.90;;;8.50;99.90;;;;;;4952201;28;20235;-62
2021/12/18 11:24:22;;;;;;;15.13;4.33;;;8.50;99.90;;;;;;4952183;28;20277;-62
2021/12/18 11:26:59;;;;;;;15.03;4.60;;;8.50;99.90;;;;;;4954820;28;20325;-61
2021/12/18 11:29:34;;;;;;;15.33;4.53;;;8.60;99.90;;;;;;4971769;28;20705;-61
2021/12/18 11:32:02;;;;;;;14.33;3.93;;;8.70;99.90;;;;;;4971561;28;20259;-61
2021/12/18 11:34:30;;;;;;;11.57;3.33;;;8.70;99.90;;;;;;4955495;28;20255;-61
2021/12/18 11:37:00;;;;;;;17.03;4.03;;;8.70;99.90;;;;;;4955271;28;20247;-62
2021/12/18 11:39:31;;;;;;;14.50;4.33;;;8.60;99.90;;;;;;4949248;28;20331;-61
2021/12/18 11:41:59;;;;;;;14.03;3.67;;;8.60;99.90;;;;;;4946560;28;20322;-61
2021/12/18 11:44:35;;;;;;;11.90;4.33;;;8.60;99.90;;;;;;4944143;28;20243;-62
2021/12/18 11:47:27;;;;;;;13.10;3.63;;;8.60;99.90;;;;;;4945650;28;20325;-62
2021/12/18 11:49:57;;;;;;;13.73;4.47;;;8.70;99.90;;;;;;4950097;28;20286;-62
2021/12/18 11:52:26;;;;;;;12.77;3.90;;;8.70;99.90;;;;;;4949352;28;20228;-61
2021/12/18 11:54:56;;;;;;;16.20;3.90;;;8.70;99.90;;;;;;4946893;28;20237;-61
2021/12/18 11:57:40;;;;;;;18.80;4.00;;;8.70;99.90;;;;;;4957382;28;20269;-61
2021/12/18 12:00:38;;;;;;;15.50;3.73;;;8.80;99.90;;;;;;4969391;28;20325;-62
2021/12/18 12:03:10;;;;;;;18.47;4.20;;;8.80;99.90;;;;;;4925373;28;20299;-62
2021/12/18 12:05:41;;;;;;;14.00;3.40;;;8.80;99.90;;;;;;4944438;28;20240;-62
2021/12/18 12:08:20;;;;;;;15.73;3.77;;;8.90;99.90;;;;;;4947629;28;20249;-61
2021/12/18 12:11:21;;;;;;;16.63;4.03;;;8.90;99.90;;;;;;4948747;28;20330;-61
2021/12/18 12:14:11;;;;;;;11.47;3.77;;;8.90;99.90;;;;;;4893364;29;20737;-62
2021/12/18 12:17:17;;;;;;;11.70;3.87;;;8.90;99.90;;;;;;4953019;28;20318;-62
2021/12/18 12:19:56;;;;;;;14.77;3.57;;;8.90;99.90;;;;;;4957586;28;20247;-62
2021/12/18 12:22:41;;;;;;;13.60;3.23;;;9.00;99.90;;;;;;4955495;28;21489;-63
2021/12/18 12:25:13;;;;;;;11.07;4.00;;;9.00;99.90;;;;;;4956447;28;20247;-61
2021/12/18 12:27:43;;;;;;;17.00;3.70;;;9.00;99.90;;;;;;4957425;28;20289;-61
2021/12/18 12:30:30;;;;;;;11.20;3.60;;;9.00;99.90;;;;;;4957534;28;20334;-62
2021/12/18 12:33:01;;;;;;;17.17;4.43;;;9.00;99.90;;;;;;4959447;28;20663;-63
2021/12/18 12:35:59;;;;;;;14.50;3.92;;;9.10;99.90;;;;;;1093832;28;10023474;-62
2021/12/18 12:38:30;;;;;;;16.07;4.30;;;9.20;99.90;;;;;;4960211;28;20438;-63
2021/12/18 12:41:18;;;;;;;18.43;4.17;;;9.20;99.90;;;;;;4955228;28;20247;-62
2021/12/18 12:43:46;;;;;;;13.57;4.00;;;9.20;99.90;;;;;;4956677;28;20271;-61
2021/12/18 12:46:17;;;;;;;17.97;3.77;;;9.20;99.90;;;;;;4962774;28;20238;-62
2021/12/18 12:49:08;;;;;;;17.30;4.00;;;9.20;99.90;;;;;;4956267;28;20238;-61
2021/12/18 12:52:04;;;;;;;12.73;3.20;;;9.10;99.90;;;;;;4960512;28;20391;-61
2021/12/18 12:54:57;;;;;;;14.83;3.57;;;9.20;99.90;;;;;;4957300;28;20250;-61
2021/12/18 12:57:33;;;;;;;18.93;3.70;;;9.20;99.90;;;;;;4955231;28;20247;-62
2021/12/18 13:00:34;;;;;;;14.37;3.37;;;9.10;99.90;;;;;;4962692;28;20250;-62
2021/12/18 13:03:09;;;;;;;15.93;3.00;;;9.10;99.90;;;;;;4953087;28;20243;-62
2021/12/18 13:05:46;;;;;;;14.03;3.33;;;9.20;99.90;;;;;;4955579;28;20250;-61
2021/12/18 13:08:16;;;;;;;15.30;3.40;;;9.10;99.90;;;;;;4955048;28;20286;-62
2021/12/18 13:10:47;;;;;;;13.73;3.60;;;9.10;99.90;;;;;;4959171;28;20249;-61
2021/12/18 13:13:18;;;;;;;14.37;3.73;;;9.10;99.90;;;;;;4958755;28;20271;-62
2021/12/18 13:15:52;;;;;;;15.77;3.70;;;9.10;99.90;;;;;;4959649;28;20322;-62
2021/12/18 13:18:23;;;;;;;11.80;3.40;;;9.10;99.90;;;;;;4959321;28;20243;-61
2021/12/18 13:20:56;;;;;;;15.37;3.57;;;9.20;99.90;;;;;;4958258;28;20805;-62
2021/12/18 13:23:38;;;;;;;13.63;3.40;;;9.10;99.90;;;;;;4953743;28;20239;-62
2021/12/18 13:26:10;;;;;;;19.73;4.30;;;9.10;99.90;;;;;;4953864;28;20242;-63
2021/12/18 13:28:48;;;;;;;12.50;3.63;;;9.10;99.90;;;;;;4955478;28;20588;-63
2021/12/18 13:31:18;;;;;;;12.87;3.53;;;9.10;99.90;;;;;;4953219;28;20247;-62
2021/12/18 13:33:58;;;;;;;12.33;3.47;;;9.10;99.90;;;;;;4953627;28;20246;-63
2021/12/18 13:36:55;;;;;;;15.70;3.80;;;9.10;99.90;;;;;;4960638;28;20234;-61
2021/12/18 13:39:27;;;;;;;13.53;4.27;;;9.00;99.90;;;;;;4926704;28;20239;-62
2021/12/18 13:42:15;;;;;;;12.90;3.57;;;9.00;99.90;;;;;;4954953;28;20297;-61
2021/12/18 13:44:47;;;;;;;10.33;3.10;;;9.00;99.90;;;;;;4955193;28;20246;-62